Time;durP1;ratioP1;P1;durP2;ratioP2;P2;SDS_P1;SDS_P2;PMS_P1;PMS_P2;Temp;Humidity;BMP_temperature;BMP_pressure;BME280_temperature;BME280_humidity;BME280_pressure;Samples;Min_cycle;Max_cycle;Signal;HPM_P1;HPM_P2
2022/04/18 00:02:05;;;;;;;6.07;4.47;;;15.60;55.80;;;;;;5031220;28;20508;-70
2022/04/18 00:04:33;;;;;;;5.80;4.40;;;;;;;;;;5047026;28;20041;-71
2022/04/18 00:06:59;;;;;;;6.03;4.20;;;15.60;55.70;;;;;;5050889;28;20057;-70
2022/04/18 00:09:26;;;;;;;5.65;4.32;;;15.20;55.70;;;;;;5051844;28;20063;-69
2022/04/18 00:11:53;;;;;;;5.53;4.45;;;15.60;53.60;;;;;;5050844;28;20056;-70
2022/04/18 00:14:19;;;;;;;4.93;4.22;;;15.20;55.40;;;;;;5051864;28;20383;-70
2022/04/18 00:16:48;;;;;;;5.63;4.20;;;14.90;55.60;;;;;;5050729;28;20052;-70
2022/04/18 00:19:14;;;;;;;6.03;4.50;;;15.60;56.00;;;;;;5050541;28;20135;-70
2022/04/18 00:21:41;;;;;;;5.55;4.38;;;15.60;50.90;;;;;;5033250;28;20409;-70
2022/04/18 00:24:08;;;;;;;5.85;4.35;;;15.70;55.80;;;;;;5030776;28;20053;-69
2022/04/18 00:26:37;;;;;;;5.97;4.50;;;15.50;53.00;;;;;;5030911;28;20115;-70
2022/04/18 00:29:03;;;;;;;6.90;4.70;;;15.60;53.10;;;;;;5030604;28;20132;-70
2022/04/18 00:31:30;;;;;;;7.07;4.93;;;15.20;55.80;;;;;;5030644;28;20060;-69
2022/04/18 00:33:58;;;;;;;6.22;4.47;;;15.50;49.30;;;;;;5030520;28;20049;-71
2022/04/18 00:36:25;;;;;;;8.32;4.68;;;;;;;;;;5036407;28;20055;-71
2022/04/18 00:38:52;;;;;;;6.05;4.50;;;15.40;56.00;;;;;;5050683;28;20055;-70
2022/04/18 00:41:19;;;;;;;5.95;4.25;;;15.40;56.00;;;;;;5051212;28;20045;-70
2022/04/18 00:43:46;;;;;;;6.53;4.70;;;15.50;49.40;;;;;;5050690;28;20478;-70
2022/04/18 00:46:14;;;;;;;5.70;4.22;;;15.50;56.10;;;;;;5050516;28;20482;-70
2022/04/18 00:48:40;;;;;;;6.75;4.55;;;15.50;55.80;;;;;;5050678;28;20603;-70
2022/04/18 00:51:10;;;;;;;5.68;4.45;;;15.30;55.80;;;;;;5050277;28;20057;-70
2022/04/18 00:53:37;;;;;;;7.10;4.57;;;15.50;56.00;;;;;;5041340;28;20061;-70
2022/04/18 00:56:05;;;;;;;6.90;4.85;;;15.60;55.20;;;;;;5030489;28;20061;-70
2022/04/18 00:58:32;;;;;;;6.30;4.70;;;15.40;55.80;;;;;;5030431;28;20057;-69
2022/04/18 01:00:59;;;;;;;6.57;4.60;;;15.40;56.00;;;;;;5030377;28;20053;-70
2022/04/18 01:03:30;;;;;;;6.97;4.95;;;15.50;56.00;;;;;;5030442;28;20056;-70
2022/04/18 01:05:57;;;;;;;6.03;4.57;;;15.40;56.10;;;;;;5030641;28;20505;-70
2022/04/18 01:08:25;;;;;;;7.88;5.30;;;15.40;49.30;;;;;;5030243;28;20053;-71
2022/04/18 01:10:52;;;;;;;7.00;4.40;;;;;;;;;;5050730;28;20076;-71
2022/04/18 01:13:19;;;;;;;6.38;4.68;;;15.40;55.70;;;;;;5053860;28;20049;-70
2022/04/18 01:15:46;;;;;;;6.32;4.70;;;15.50;56.10;;;;;;5054215;28;20057;-72
2022/04/18 01:18:13;;;;;;;7.53;5.25;;;;;;;;;;5055145;28;20049;-71
2022/04/18 01:20:43;;;;;;;6.35;4.75;;;15.60;56.20;;;;;;5053430;28;20053;-72
2022/04/18 01:23:10;;;;;;;6.20;4.88;;;15.30;56.10;;;;;;5053719;28;20053;-72
2022/04/18 01:31:05;;;;;;;5.70;4.50;;;15.40;56.20;;;;;;5053644;28;20048;-71
2022/04/18 01:33:32;;;;;;;6.75;4.78;;;14.80;55.60;;;;;;5053510;28;20474;-71
2022/04/18 01:36:00;;;;;;;6.95;5.07;;;15.00;55.80;;;;;;5053537;28;20545;-71
2022/04/18 01:38:27;;;;;;;7.22;5.07;;;;;;;;;;5037055;28;20052;-71
2022/04/18 01:40:54;;;;;;;6.93;5.10;;;15.40;55.70;;;;;;5054423;28;20071;-72
2022/04/18 01:43:20;;;;;;;5.78;4.78;;;15.00;55.80;;;;;;5051882;28;20053;-72
2022/04/18 01:45:47;;;;;;;6.80;5.18;;;;;;;;;;5054461;28;20060;-71
2022/04/18 01:48:14;;;;;;;6.85;5.10;;;15.30;55.80;;;;;;5053607;28;20079;-72
2022/04/18 01:50:41;;;;;;;7.75;5.03;;;15.20;55.80;;;;;;5053121;28;20052;-72
2022/04/18 01:53:09;;;;;;;8.07;5.40;;;15.20;52.90;;;;;;5054173;28;20057;-71
2022/04/18 01:55:35;;;;;;;6.72;5.07;;;15.20;55.80;;;;;;5054307;28;20049;-72
2022/04/18 01:58:05;;;;;;;7.20;5.25;;;15.20;56.00;;;;;;5053052;28;20055;-71
2022/04/18 02:00:32;;;;;;;7.57;4.90;;;15.00;49.20;;;;;;5051405;28;20505;-71
2022/04/18 02:02:58;;;;;;;7.03;5.10;;;14.70;55.90;;;;;;5052619;28;20052;-71
2022/04/18 02:05:25;;;;;;;8.60;5.70;;;15.20;56.10;;;;;;5053301;28;20083;-72
2022/04/18 02:07:52;;;;;;;8.82;5.15;;;;;;;;;;5054108;28;20486;-71
2022/04/18 02:10:20;;;;;;;8.25;5.43;;;14.90;55.70;;;;;;5053760;28;20053;-71
2022/04/18 02:12:47;;;;;;;6.45;4.97;;;15.20;56.30;;;;;;5052827;28;20052;-71
2022/04/18 02:15:15;;;;;;;8.85;5.25;;;14.60;51.30;;;;;;5051309;28;20049;-71
2022/04/18 02:17:42;;;;;;;7.88;5.20;;;;;;;;;;5054105;28;20060;-72
2022/04/18 02:20:09;;;;;;;8.40;5.38;;;15.10;56.10;;;;;;5053472;28;20041;-71
2022/04/18 02:22:36;;;;;;;7.40;5.40;;;14.60;55.60;;;;;;5052852;28;20045;-70
2022/04/18 02:25:02;;;;;;;9.13;5.63;;;15.10;55.70;;;;;;5052494;28;20506;-71
2022/04/18 02:27:30;;;;;;;6.75;5.50;;;15.10;56.10;;;;;;5052899;28;20057;-71
2022/04/18 02:29:58;;;;;;;8.93;5.60;;;;;;;;;;5052385;28;20049;-71
2022/04/18 02:35:09;;;;;;;7.70;5.50;;;15.00;56.10;;;;;;5052680;28;20053;-71
2022/04/18 02:37:36;;;;;;;8.00;6.03;;;14.70;55.70;;;;;;5052415;28;20053;-71
2022/04/18 02:40:03;;;;;;;7.95;5.43;;;15.00;53.80;;;;;;5052391;28;20504;-70
2022/04/18 02:42:31;;;;;;;6.82;5.15;;;15.10;56.30;;;;;;5052571;28;20063;-70
2022/04/18 02:44:57;;;;;;;7.78;5.35;;;15.10;56.20;;;;;;5053280;28;20497;-71
2022/04/18 02:47:24;;;;;;;9.55;5.45;;;15.10;55.90;;;;;;5050805;28;20060;-71
2022/04/18 02:49:51;;;;;;;7.32;5.50;;;15.10;56.10;;;;;;5053241;28;20049;-71
2022/04/18 02:52:18;;;;;;;8.07;5.35;;;15.00;55.90;;;;;;5053467;28;20053;-71
2022/04/18 02:54:45;;;;;;;6.22;5.00;;;;;;;;;;5051936;28;20045;-70
2022/04/18 02:57:12;;;;;;;6.82;5.15;;;15.00;56.30;;;;;;5051879;28;20131;-71
2022/04/18 02:59:40;;;;;;;6.95;5.45;;;14.70;56.00;;;;;;5051916;28;20052;-71
2022/04/18 03:02:07;;;;;;;7.32;5.57;;;15.00;56.10;;;;;;5052204;28;20049;-71
2022/04/18 03:04:34;;;;;;;6.82;5.30;;;15.30;55.80;;;;;;5051077;28;20045;-71
2022/04/18 03:07:01;;;;;;;7.47;4.85;;;15.70;56.30;;;;;;5051751;28;20065;-71
2022/04/18 03:09:28;;;;;;;8.30;5.25;;;14.90;56.10;;;;;;5051529;28;20056;-71
2022/04/18 03:11:56;;;;;;;7.07;5.10;;;14.20;55.50;;;;;;5051989;28;20057;-71
2022/04/18 03:14:23;;;;;;;6.47;5.00;;;15.00;55.90;;;;;;5052803;28;20651;-71
2022/04/18 03:16:51;;;;;;;7.13;5.43;;;14.60;54.90;;;;;;5052873;28;20045;-71
2022/04/18 03:19:18;;;;;;;6.47;5.07;;;14.90;56.00;;;;;;5052730;28;20136;-71
2022/04/18 03:21:45;;;;;;;6.53;5.03;;;14.90;56.20;;;;;;5050802;28;20045;-70
2022/04/18 03:24:12;;;;;;;7.43;5.05;;;;;;;;;;5052486;28;20048;-71
2022/04/18 03:26:38;;;;;;;7.00;5.63;;;14.80;56.20;;;;;;5052658;28;20127;-71
2022/04/18 03:29:06;;;;;;;7.85;5.32;;;;;;;;;;5052727;28;20049;-70
2022/04/18 03:31:32;;;;;;;6.38;5.25;;;14.90;56.30;;;;;;5050642;28;20128;-71
2022/04/18 03:34:00;;;;;;;6.72;5.07;;;14.70;56.20;;;;;;5052045;28;20152;-71
2022/04/18 03:41:55;;;;;;;7.47;5.22;;;14.90;56.40;;;;;;5051059;28;20052;-71
2022/04/18 03:44:22;;;;;;;7.32;4.88;;;;;;;;;;5052280;28;20052;-70
2022/04/18 03:46:49;;;;;;;7.55;5.65;;;14.80;56.30;;;;;;5051278;28;20057;-71
2022/04/18 03:49:18;;;;;;;7.07;5.13;;;14.80;56.10;;;;;;5052173;28;20432;-71
2022/04/18 03:51:45;;;;;;;8.30;5.50;;;14.90;56.10;;;;;;5050809;28;20057;-71
2022/04/18 03:54:11;;;;;;;7.18;5.32;;;14.90;56.10;;;;;;5036022;28;20056;-71
2022/04/18 03:56:38;;;;;;;6.47;4.70;;;;;;;;;;5031187;28;20061;-71
2022/04/18 03:59:05;;;;;;;8.00;5.18;;;14.90;56.10;;;;;;5031170;28;20053;-71
2022/04/18 04:01:32;;;;;;;6.60;5.15;;;14.90;56.40;;;;;;5032404;28;20120;-71
2022/04/18 04:03:59;;;;;;;9.18;5.72;;;;;;;;;;5030733;28;20049;-70
2022/04/18 04:06:27;;;;;;;6.53;4.55;;;15.00;56.40;;;;;;5031624;28;20053;-71
2022/04/18 04:08:54;;;;;;;7.93;5.00;;;14.80;56.00;;;;;;5052274;28;20052;-70
2022/04/18 04:11:21;;;;;;;8.68;4.78;;;14.60;56.20;;;;;;5050670;28;20428;-70
2022/04/18 04:13:48;;;;;;;7.57;5.53;;;14.80;56.00;;;;;;5050484;28;20139;-71
2022/04/18 04:16:14;;;;;;;6.38;4.75;;;14.90;56.10;;;;;;5051790;28;20045;-71
2022/04/18 04:18:41;;;;;;;8.05;5.05;;;14.80;54.00;;;;;;5051870;28;20049;-71
2022/04/18 04:21:08;;;;;;;7.63;5.05;;;14.50;55.80;;;;;;5051612;28;20408;-71
2022/04/18 04:23:36;;;;;;;7.53;5.20;;;14.90;49.30;;;;;;5040435;28;20045;-71
2022/04/18 04:26:02;;;;;;;7.18;5.03;;;15.00;56.00;;;;;;5030821;28;20053;-71
2022/04/18 04:28:30;;;;;;;8.68;5.72;;;14.90;56.30;;;;;;5030651;28;20057;-71
2022/04/18 04:30:56;;;;;;;6.43;4.90;;;14.90;56.20;;;;;;5030737;28;20060;-71
2022/04/18 04:33:24;;;;;;;6.60;5.28;;;;;;;;;;5030504;28;20059;-70
2022/04/18 04:35:50;;;;;;;6.55;5.22;;;14.70;55.90;;;;;;5030845;28;20049;-71
2022/04/18 04:38:17;;;;;;;8.88;5.10;;;;;;;;;;5031778;28;20080;-71
2022/04/18 04:40:46;;;;;;;7.35;5.30;;;14.50;56.00;;;;;;5032690;28;20060;-71
2022/04/18 04:43:12;;;;;;;7.13;5.57;;;14.80;55.90;;;;;;5032817;28;20170;-71
2022/04/18 04:45:39;;;;;;;7.38;5.07;;;14.40;55.70;;;;;;5034783;28;20060;-70
2022/04/18 04:48:06;;;;;;;7.50;5.35;;;14.50;55.00;;;;;;5034489;28;20051;-71
2022/04/18 04:50:33;;;;;;;8.95;5.20;;;14.80;56.30;;;;;;5034553;28;20120;-71
2022/04/18 04:53:00;;;;;;;7.03;5.22;;;;;;;;;;5035767;28;20141;-70
2022/04/18 04:55:27;;;;;;;8.50;5.38;;;14.90;56.40;;;;;;5054149;28;20061;-71
2022/04/18 04:57:55;;;;;;;8.07;5.47;;;14.40;48.90;;;;;;5054540;28;20405;-70
2022/04/18 05:00:22;;;;;;;7.05;5.47;;;14.90;53.30;;;;;;5054160;28;20051;-71
2022/04/18 05:02:49;;;;;;;6.78;5.18;;;14.80;56.20;;;;;;5053998;28;20067;-71
2022/04/18 05:05:16;;;;;;;6.88;5.32;;;14.40;55.90;;;;;;5054316;28;20055;-71
2022/04/18 05:07:42;;;;;;;7.00;5.47;;;14.80;56.20;;;;;;5048642;28;20049;-71
2022/04/18 05:10:09;;;;;;;7.53;5.38;;;14.30;55.80;;;;;;5035289;28;20425;-71
2022/04/18 05:12:36;;;;;;;7.03;5.13;;;;;;;;;;5034152;28;20057;-70
2022/04/18 05:15:05;;;;;;;7.18;5.30;;;14.90;56.00;;;;;;5034926;28;20075;-71
2022/04/18 05:17:32;;;;;;;8.07;5.70;;;;;;;;;;5033890;28;20471;-70
2022/04/18 05:19:59;;;;;;;10.35;5.55;;;14.90;56.20;;;;;;5033664;28;20057;-71
2022/04/18 05:22:26;;;;;;;7.38;5.55;;;14.90;55.90;;;;;;5034905;28;20049;-71
2022/04/18 05:24:55;;;;;;;7.85;5.50;;;;;;;;;;5035077;28;20503;-71
2022/04/18 05:27:22;;;;;;;7.45;5.72;;;15.00;55.90;;;;;;5035030;28;20045;-71
2022/04/18 05:29:48;;;;;;;8.38;5.13;;;14.60;55.60;;;;;;5034827;28;20069;-71
2022/04/18 05:32:16;;;;;;;6.88;5.10;;;14.90;53.70;;;;;;5033862;28;20482;-71
2022/04/18 05:34:43;;;;;;;6.93;5.40;;;14.90;55.30;;;;;;5034772;28;20049;-71
2022/04/18 05:37:10;;;;;;;6.93;5.03;;;14.40;55.60;;;;;;5033430;28;20065;-71
2022/04/18 05:39:37;;;;;;;6.78;5.22;;;;;;;;;;5034617;28;20506;-71
2022/04/18 05:42:06;;;;;;;7.32;5.20;;;14.90;55.70;;;;;;5034881;28;20061;-71
2022/04/18 05:44:33;;;;;;;7.65;5.45;;;14.90;55.60;;;;;;5034777;28;20045;-71
2022/04/18 05:46:59;;;;;;;8.02;5.78;;;14.90;55.70;;;;;;5033452;28;20521;-71
2022/04/18 05:49:27;;;;;;;7.50;5.35;;;14.90;56.00;;;;;;5033230;28;20057;-71
2022/04/18 05:51:54;;;;;;;6.97;5.07;;;15.00;55.80;;;;;;5034738;28;20132;-71
2022/04/18 05:54:21;;;;;;;7.00;4.85;;;;;;;;;;5034178;28;20673;-71
2022/04/18 05:56:48;;;;;;;7.65;5.97;;;15.00;55.70;;;;;;5038132;28;20500;-71
2022/04/18 05:59:15;;;;;;;7.80;5.38;;;15.00;56.10;;;;;;5053426;28;20053;-71
2022/04/18 06:01:41;;;;;;;6.32;4.97;;;14.70;49.70;;;;;;5053036;28;20053;-71
2022/04/18 06:04:08;;;;;;;7.65;5.32;;;14.50;55.30;;;;;;5054600;28;20402;-71
2022/04/18 06:06:36;;;;;;;7.65;5.40;;;15.00;55.90;;;;;;5052721;28;20060;-71
2022/04/18 06:09:03;;;;;;;7.45;5.30;;;15.10;55.60;;;;;;5052809;28;20049;-71
2022/04/18 06:11:30;;;;;;;7.65;5.30;;;;;;;;;;5039343;28;20049;-70
2022/04/18 06:13:57;;;;;;;6.60;5.00;;;15.10;55.60;;;;;;5033207;28;20060;-71
2022/04/18 06:16:23;;;;;;;7.75;5.03;;;15.10;55.50;;;;;;5033039;28;20059;-71
2022/04/18 06:18:50;;;;;;;7.50;5.35;;;15.20;53.50;;;;;;5033126;28;20055;-70
2022/04/18 06:21:17;;;;;;;7.93;5.80;;;15.10;55.60;;;;;;5032791;28;20482;-71
2022/04/18 06:23:45;;;;;;;7.20;5.00;;;15.10;48.90;;;;;;5033954;28;20049;-70
2022/04/18 06:26:12;;;;;;;6.80;5.07;;;;;;;;;;5033047;28;20063;-70
2022/04/18 06:28:39;;;;;;;6.97;4.90;;;15.20;55.80;;;;;;5033580;28;20068;-71
2022/04/18 06:31:05;;;;;;;7.20;5.20;;;15.20;55.50;;;;;;5033624;28;20053;-71
2022/04/18 06:33:34;;;;;;;7.65;5.20;;;;;;;;;;5032356;28;20405;-71
2022/04/18 06:36:01;;;;;;;6.63;4.90;;;15.00;54.10;;;;;;5033801;28;20049;-70
2022/04/18 06:38:29;;;;;;;7.28;5.30;;;;;;;;;;5032842;28;20716;-71
2022/04/18 06:40:58;;;;;;;7.47;5.32;;;15.60;55.90;;;;;;5033438;28;20057;-71
2022/04/18 06:43:24;;;;;;;6.75;4.90;;;15.50;55.60;;;;;;5032605;28;20057;-70
2022/04/18 06:45:51;;;;;;;6.22;4.93;;;15.60;55.20;;;;;;5040625;28;20486;-71
2022/04/18 06:48:18;;;;;;;6.07;4.30;;;16.30;55.50;;;;;;5049336;28;20059;-70
2022/04/18 06:50:45;;;;;;;4.95;4.25;;;16.00;54.90;;;;;;5040834;28;20056;-70
2022/04/18 06:53:12;;;;;;;7.00;4.50;;;16.10;54.70;;;;;;5049405;28;20139;-71
2022/04/18 06:58:24;;;;;;;5.78;4.40;;;16.20;49.90;;;;;;5042962;28;20049;-71
2022/04/18 07:00:51;;;;;;;6.28;4.57;;;16.70;52.30;;;;;;5046222;28;20053;-70
2022/04/18 07:03:18;;;;;;;6.13;4.38;;;17.10;54.40;;;;;;5040741;28;20057;-70
2022/04/18 07:05:45;;;;;;;6.50;4.32;;;16.10;53.90;;;;;;5041829;28;20684;-69
2022/04/18 07:08:11;;;;;;;6.53;4.55;;;17.00;49.50;;;;;;5043606;28;20054;-70
2022/04/18 07:10:38;;;;;;;6.00;4.30;;;16.00;53.20;;;;;;5042425;28;20063;-70
2022/04/18 07:13:05;;;;;;;5.47;3.97;;;17.20;53.80;;;;;;5044737;28;20409;-70
2022/04/18 07:15:33;;;;;;;6.93;4.72;;;17.30;48.50;;;;;;5051659;28;20061;-70
2022/04/18 07:18:01;;;;;;;5.25;4.07;;;17.10;53.40;;;;;;5050665;28;20067;-70
2022/04/18 07:20:28;;;;;;;7.18;4.28;;;17.70;53.60;;;;;;5032906;28;20130;-70
2022/04/18 07:22:55;;;;;;;5.80;4.03;;;18.00;53.90;;;;;;5031861;28;20054;-70
2022/04/18 07:25:22;;;;;;;6.47;3.92;;;17.50;49.10;;;;;;5031646;28;20046;-70
2022/04/18 07:27:48;;;;;;;7.07;4.40;;;16.50;52.50;;;;;;5031710;28;20049;-70
2022/04/18 07:30:15;;;;;;;5.45;4.18;;;17.50;53.30;;;;;;5032543;28;20049;-70
2022/04/18 07:32:44;;;;;;;6.70;4.35;;;16.50;52.50;;;;;;5032795;28;20072;-70
2022/04/18 07:35:11;;;;;;;7.32;4.63;;;17.20;52.80;;;;;;5032595;28;20056;-70
2022/04/18 07:38:48;;;;;;;7.18;4.55;;;17.70;53.10;;;;;;5031749;28;20064;-69
2022/04/18 07:40:24;;;;;;;6.03;4.20;;;17.70;49.30;;;;;;5030840;28;20060;-70
2022/04/18 07:42:51;;;;;;;5.63;4.03;;;17.80;52.30;;;;;;5032407;28;20042;-70
2022/04/18 07:45:17;;;;;;;4.80;3.72;;;17.60;52.70;;;;;;5032412;28;20046;-70
2022/04/18 07:47:46;;;;;;;7.55;4.00;;;16.80;46.90;;;;;;5031627;28;20064;-71
2022/04/18 07:50:12;;;;;;;8.95;3.95;;;17.60;53.10;;;;;;5031130;28;20083;-69
2022/04/18 07:52:39;;;;;;;6.05;4.20;;;17.40;53.10;;;;;;5043147;28;20049;-70
2022/04/18 07:55:07;;;;;;;5.97;3.88;;;17.90;53.10;;;;;;5047208;28;20041;-70
2022/04/18 07:57:34;;;;;;;7.05;3.92;;;17.70;53.00;;;;;;5047596;28;20060;-69
2022/04/18 08:00:01;;;;;;;11.57;4.03;;;;;;;;;;5050910;28;20060;-69
2022/04/18 08:02:28;;;;;;;5.97;4.13;;;17.00;52.80;;;;;;5051274;28;20059;-69
2022/04/18 08:04:56;;;;;;;7.35;3.83;;;17.40;52.80;;;;;;5052283;28;20037;-69
2022/04/18 08:07:23;;;;;;;4.20;3.40;;;;;;;;;;5050831;28;20482;-70
2022/04/18 08:09:50;;;;;;;6.43;3.85;;;17.10;52.70;;;;;;5033145;28;20057;-70
2022/04/18 08:12:17;;;;;;;7.47;3.88;;;16.40;52.30;;;;;;5044946;28;20061;-69
2022/04/18 08:14:44;;;;;;;6.07;4.10;;;17.70;53.00;;;;;;5032124;28;20049;-70
2022/04/18 08:17:11;;;;;;;6.75;4.13;;;17.70;53.00;;;;;;5034776;28;20053;-69
2022/04/18 08:19:39;;;;;;;6.93;4.38;;;18.00;53.10;;;;;;5030393;28;20056;-69
2022/04/18 08:22:07;;;;;;;8.07;3.65;;;16.80;52.60;;;;;;5031924;28;20050;-69
2022/04/18 08:24:34;;;;;;;6.50;3.53;;;17.90;52.90;;;;;;5032049;28;20059;-70
2022/04/18 08:27:01;;;;;;;5.78;3.80;;;17.50;52.70;;;;;;5031751;28;20045;-70
2022/04/18 08:29:28;;;;;;;5.43;3.50;;;17.40;52.80;;;;;;5030686;28;20063;-69
2022/04/18 08:31:54;;;;;;;8.73;4.07;;;16.90;52.10;;;;;;5035185;28;20486;-70
2022/04/18 08:34:21;;;;;;;5.90;3.63;;;;;;;;;;5049256;28;20055;-70
2022/04/18 08:36:48;;;;;;;4.47;3.50;;;16.90;52.00;;;;;;5045126;28;20055;-70
2022/04/18 08:39:16;;;;;;;7.78;3.60;;;17.50;52.60;;;;;;5030439;28;20064;-71
2022/04/18 08:41:44;;;;;;;9.75;4.03;;;17.60;52.90;;;;;;5029579;28;20061;-70
2022/04/18 08:44:11;;;;;;;7.97;3.58;;;17.80;52.60;;;;;;5030544;28;20084;-70
2022/04/18 08:46:38;;;;;;;13.50;3.80;;;18.20;52.70;;;;;;5030570;28;20136;-71
2022/04/18 08:54:34;;;;;;;4.95;3.20;;;17.80;52.60;;;;;;5050393;28;20057;-70
2022/04/18 08:57:01;;;;;;;6.30;3.42;;;16.90;51.80;;;;;;5051423;28;20055;-70
2022/04/18 08:59:28;;;;;;;6.55;3.65;;;17.90;52.70;;;;;;5050132;28;20517;-71
2022/04/18 09:01:54;;;;;;;5.65;3.47;;;17.80;52.90;;;;;;5050443;28;20136;-70
2022/04/18 09:04:21;;;;;;;6.07;3.33;;;17.60;52.20;;;;;;5041688;28;20501;-70
2022/04/18 09:06:48;;;;;;;5.78;3.70;;;18.60;53.20;;;;;;5030420;28;20203;-70
2022/04/18 09:09:15;;;;;;;6.43;3.20;;;17.60;52.30;;;;;;5030094;28;20046;-70
2022/04/18 09:11:46;;;;;;;5.45;3.58;;;18.10;52.70;;;;;;5030576;28;20045;-69
2022/04/18 09:14:13;;;;;;;4.80;3.33;;;18.00;52.70;;;;;;5050330;28;20053;-70
2022/04/18 09:16:41;;;;;;;5.90;3.08;;;18.20;52.90;;;;;;5050125;28;20049;-71
2022/04/18 09:19:09;;;;;;;5.20;3.35;;;18.00;52.50;;;;;;5051148;28;20045;-70
2022/04/18 09:21:41;;;;;;;5.90;3.05;;;18.60;53.00;;;;;;5032453;28;20108;-71
2022/04/18 09:24:08;;;;;;;7.07;2.95;;;17.90;52.50;;;;;;5031332;28;20569;-70
2022/04/18 09:26:35;;;;;;;3.95;2.78;;;;;;;;;;5030345;28;20049;-71
2022/04/18 09:29:06;;;;;;;6.28;3.10;;;18.20;52.80;;;;;;5030296;28;20053;-70
2022/04/18 09:31:39;;;;;;;5.57;3.17;;;17.20;52.30;;;;;;5033899;28;20056;-70
2022/04/18 09:34:06;;;;;;;5.18;3.20;;;17.90;53.10;;;;;;5033783;28;20061;-70
2022/04/18 09:36:33;;;;;;;4.60;3.08;;;18.00;52.90;;;;;;5034651;28;20042;-71
2022/04/18 09:38:59;;;;;;;4.05;2.95;;;18.10;50.60;;;;;;5033926;28;20056;-70
2022/04/18 09:41:26;;;;;;;5.13;3.10;;;17.80;52.80;;;;;;5033560;28;20496;-70
2022/04/18 09:43:54;;;;;;;5.30;2.75;;;17.80;52.80;;;;;;5033560;28;20052;-70
2022/04/18 09:46:22;;;;;;;7.32;3.15;;;18.30;52.90;;;;;;5033776;28;20092;-70
2022/04/18 09:48:50;;;;;;;4.53;2.80;;;18.20;52.80;;;;;;5037512;28;20041;-70
2022/04/18 09:51:24;;;;;;;4.45;2.70;;;18.20;52.60;;;;;;5053190;28;20063;-70
2022/04/18 09:53:51;;;;;;;4.35;2.85;;;17.90;52.70;;;;;;5054531;28;20067;-70
2022/04/18 09:56:20;;;;;;;5.13;3.05;;;18.30;53.20;;;;;;5053249;28;20049;-70
2022/04/18 09:58:47;;;;;;;4.47;2.80;;;18.30;53.10;;;;;;5053398;28;20053;-70
2022/04/18 10:01:14;;;;;;;3.60;2.63;;;18.40;53.10;;;;;;5047259;28;20060;-70
2022/04/18 10:03:43;;;;;;;3.55;2.85;;;18.20;52.80;;;;;;5033366;28;20065;-70
2022/04/18 10:06:10;;;;;;;5.45;2.95;;;18.00;52.50;;;;;;5033438;28;20057;-70
2022/04/18 10:08:37;;;;;;;4.65;2.90;;;18.20;52.50;;;;;;5034374;28;20132;-70
2022/04/18 10:11:04;;;;;;;5.05;3.05;;;18.30;52.90;;;;;;5033161;28;20089;-70
2022/04/18 10:13:31;;;;;;;4.15;2.70;;;17.50;52.50;;;;;;5016702;28;20060;-70
2022/04/18 10:15:59;;;;;;;4.80;2.70;;;18.20;52.70;;;;;;5033032;28;20050;-70
2022/04/18 10:18:26;;;;;;;4.30;2.53;;;18.10;52.70;;;;;;5036097;28;20056;-71
2022/04/18 10:21:20;;;;;;;3.45;2.60;;;18.70;52.80;;;;;;5034219;28;20387;-70
2022/04/18 10:24:15;;;;;;;4.10;3.05;;;18.10;52.40;;;;;;5033135;28;20057;-70
2022/04/18 10:27:05;;;;;;;4.13;2.83;;;18.30;53.10;;;;;;5028317;28;20053;-70
2022/04/18 10:29:33;;;;;;;4.88;2.40;;;18.70;52.90;;;;;;5032769;28;20132;-70
2022/04/18 10:32:00;;;;;;;3.83;2.80;;;18.30;52.70;;;;;;5033006;28;20565;-70
2022/04/18 10:34:31;;;;;;;3.45;2.60;;;17.90;52.90;;;;;;5038885;28;20059;-70
2022/04/18 10:37:01;;;;;;;4.07;2.80;;;18.10;52.90;;;;;;5053631;28;20053;-70
2022/04/18 10:39:33;;;;;;;4.55;2.97;;;17.80;52.50;;;;;;5053675;28;20051;-70
2022/04/18 10:42:01;;;;;;;4.63;3.00;;;18.20;52.80;;;;;;5052117;28;20056;-70
2022/04/18 10:44:34;;;;;;;3.20;2.58;;;18.10;52.90;;;;;;5035430;28;20053;-70
2022/04/18 10:47:04;;;;;;;3.22;2.40;;;18.90;53.40;;;;;;5052595;28;20060;-71
2022/04/18 10:49:32;;;;;;;3.75;2.85;;;19.00;53.30;;;;;;5053413;28;20056;-71
2022/04/18 10:52:09;;;;;;;5.32;2.45;;;19.00;53.00;;;;;;5035334;28;20653;-70
2022/04/18 10:54:35;;;;;;;4.63;2.47;;;18.40;52.90;;;;;;5032377;28;20384;-70
2022/04/18 10:57:05;;;;;;;4.07;2.65;;;18.20;52.90;;;;;;5032121;28;20053;-70
2022/04/18 10:59:33;;;;;;;3.78;2.35;;;18.40;52.90;;;;;;5032366;28;20057;-70
2022/04/18 11:02:01;;;;;;;3.33;2.45;;;18.50;53.00;;;;;;5033258;28;20049;-70
2022/04/18 11:04:28;;;;;;;3.92;2.30;;;18.40;52.80;;;;;;5031916;28;20057;-70
2022/04/18 11:07:00;;;;;;;3.60;2.70;;;18.50;53.00;;;;;;5038853;28;20049;-70
2022/04/18 11:09:27;;;;;;;3.47;2.25;;;18.40;52.90;;;;;;5051758;28;20049;-70
2022/04/18 11:12:08;;;;;;;3.47;2.30;;;18.50;52.80;;;;;;5052103;28;20405;-70
2022/04/18 11:14:52;;;;;;;3.85;2.30;;;18.80;53.20;;;;;;5051605;28;20084;-70
2022/04/18 11:17:27;;;;;;;3.33;2.40;;;18.80;53.20;;;;;;5051735;28;20516;-70
2022/04/18 11:19:53;;;;;;;2.90;2.20;;;18.60;53.20;;;;;;5051787;28;20067;-70
2022/04/18 11:22:22;;;;;;;3.05;2.30;;;18.50;52.80;;;;;;5051777;28;20071;-70
2022/04/18 11:24:56;;;;;;;3.63;2.50;;;17.70;52.30;;;;;;5051139;28;20045;-70
2022/04/18 11:27:24;;;;;;;3.87;2.50;;;18.40;52.90;;;;;;5051861;28;20156;-70
2022/04/18 11:29:52;;;;;;;4.68;2.22;;;18.70;53.20;;;;;;5052402;28;20303;-70
2022/04/18 11:32:20;;;;;;;3.20;2.30;;;18.20;52.90;;;;;;5051745;28;20060;-70
2022/04/18 11:34:47;;;;;;;3.08;2.10;;;17.50;52.50;;;;;;5052624;28;20055;-70
2022/04/18 11:37:22;;;;;;;3.20;2.20;;;18.80;53.00;;;;;;5051125;28;20135;-70
2022/04/18 11:39:49;;;;;;;;;;;18.40;47.60;;;;;;5046435;28;20057;-70
2022/04/18 11:42:16;;;;;;;3.53;2.38;;;18.60;53.30;;;;;;5032750;28;19920;-71
2022/04/18 11:44:44;;;;;;;2.83;1.80;;;18.30;53.40;;;;;;5031137;28;20417;-72
2022/04/18 11:47:12;;;;;;;3.35;2.15;;;17.30;52.10;;;;;;5031620;28;20049;-71
2022/04/18 11:49:39;;;;;;;3.00;2.15;;;18.40;53.00;;;;;;5030954;28;20060;-72
2022/04/18 11:52:06;;;;;;;5.25;2.22;;;18.60;52.90;;;;;;5032447;28;20075;-72
2022/04/18 11:54:34;;;;;;;2.28;1.90;;;18.50;52.30;;;;;;5030843;28;20057;-71
2022/04/18 11:57:01;;;;;;;2.55;1.92;;;18.50;51.50;;;;;;5033422;28;20045;-72
2022/04/18 11:59:28;;;;;;;3.58;2.20;;;18.50;53.00;;;;;;5030987;28;20049;-72
2022/04/18 12:07:25;;;;;;;2.85;1.98;;;18.40;52.70;;;;;;5031057;28;20038;-70
2022/04/18 12:09:54;;;;;;;3.00;2.10;;;18.60;53.00;;;;;;5030765;28;20049;-70
2022/04/18 12:12:28;;;;;;;3.13;2.10;;;17.70;52.20;;;;;;5031599;28;20490;-71
2022/04/18 12:14:55;;;;;;;2.80;2.00;;;;;;;;;;5030767;28;20060;-71
2022/04/18 12:17:22;;;;;;;3.20;1.98;;;18.10;52.90;;;;;;5047738;28;20053;-70
2022/04/18 12:19:51;;;;;;;2.80;2.22;;;18.70;52.80;;;;;;5050686;28;20136;-70
2022/04/18 12:22:21;;;;;;;3.83;2.17;;;18.40;53.00;;;;;;5051838;28;20140;-72
2022/04/18 12:24:48;;;;;;;2.90;2.03;;;18.90;53.40;;;;;;5050550;28;20440;-72
2022/04/18 12:27:17;;;;;;;2.75;1.98;;;18.90;52.90;;;;;;5051865;28;20045;-72
2022/04/18 12:29:44;;;;;;;2.97;2.03;;;18.40;52.90;;;;;;5048840;28;20053;-72
2022/04/18 12:32:27;;;;;;;3.00;2.22;;;19.30;53.50;;;;;;5050803;28;20387;-72
2022/04/18 12:34:53;;;;;;;3.15;2.13;;;18.70;53.10;;;;;;5050835;28;20633;-72
2022/04/18 12:37:20;;;;;;;3.10;1.92;;;18.60;52.90;;;;;;5050424;28;20055;-71
2022/04/18 12:39:47;;;;;;;2.78;1.95;;;17.80;52.60;;;;;;5051284;28;20044;-72
2022/04/18 12:42:15;;;;;;;2.85;2.17;;;18.70;53.00;;;;;;5051856;28;20064;-70
2022/04/18 12:44:43;;;;;;;3.30;2.30;;;18.60;47.80;;;;;;5050297;28;20067;-71
2022/04/18 12:47:17;;;;;;;2.60;2.10;;;19.30;53.40;;;;;;5050401;28;20051;-72
2022/04/18 12:50:08;;;;;;;3.10;2.20;;;18.60;47.20;;;;;;5051332;28;20052;-71
2022/04/18 12:52:34;;;;;;;3.30;2.33;;;19.40;53.40;;;;;;5050666;28;20060;-72
2022/04/18 12:55:08;;;;;;;3.10;2.15;;;18.60;52.70;;;;;;5051503;28;20047;-72
2022/04/18 12:57:35;;;;;;;2.60;1.90;;;18.40;52.70;;;;;;5050345;28;20429;-71
2022/04/18 13:00:14;;;;;;;3.17;2.20;;;18.40;53.10;;;;;;5051386;28;20079;-72
2022/04/18 13:02:41;;;;;;;2.78;2.20;;;17.80;52.20;;;;;;5049731;28;20041;-72
2022/04/18 13:05:08;;;;;;;2.60;1.88;;;19.20;53.40;;;;;;5052162;28;20067;-72
2022/04/18 13:07:41;;;;;;;2.38;1.73;;;18.70;53.00;;;;;;5053521;28;20095;-72
2022/04/18 13:10:09;;;;;;;2.58;2.00;;;18.10;52.30;;;;;;5054227;28;20052;-71
2022/04/18 13:12:35;;;;;;;2.30;1.90;;;18.40;52.60;;;;;;5054459;28;20064;-72
2022/04/18 13:15:05;;;;;;;2.47;1.85;;;17.80;52.50;;;;;;5054113;28;20056;-71
2022/04/18 13:17:35;;;;;;;3.45;2.05;;;18.40;52.90;;;;;;5053861;28;20052;-72
2022/04/18 13:20:06;;;;;;;2.15;1.90;;;18.30;52.50;;;;;;5053778;28;20044;-72
2022/04/18 13:22:34;;;;;;;2.80;1.95;;;18.40;52.80;;;;;;5055332;28;20053;-72
2022/04/18 13:25:01;;;;;;;2.10;1.80;;;18.70;52.20;;;;;;5055191;28;20055;-72
2022/04/18 13:27:28;;;;;;;2.45;1.83;;;18.70;53.40;;;;;;5055101;28;20079;-72
2022/04/18 13:29:55;;;;;;;2.55;1.73;;;18.50;53.10;;;;;;5053367;28;20049;-71